This is the latest recevied weather packets stored in our database for station/object ENRA. If no packets are shown the sender has not sent any weather packets the latest 10 day(s).
| Time | Temp. | Humidity | Pressure | Rain* | Wind** | Luminosity | Snow |
|---|---|---|---|---|---|---|---|
| 1777980787 | 5° C | 65% | 1001 hPa | - | - | - | - |
| 1777975387 | 5° C | 65% | 1001 hPa | - | - | - | - |
| 1777973586 | 3.89° C | 69% | 1001 hPa | - | - | - | - |
| 1777971787 | 2.78° C | 80% | 1001 hPa | - | - | - | - |
| 1777969986 | 1.67° C | 80% | 1001 hPa | - | - | - | - |
| 1777968187 | 1.67° C | 80% | 1001 hPa | - | - | - | - |
| 1777966386 | 1.67° C | 74% | 1001 hPa | - | - | - | - |
| 1777964587 | 1.67° C | 74% | 1000 hPa | - | - | - | - |
| 1777962786 | 2.78° C | 74% | 1000 hPa | - | - | - | - |
| 1777959189 | 0.56° C | 86% | 1000 hPa | - | - | - | - |
| 1777957386 | 0° C | 92% | 1000 hPa | - | - | - | - |
| 1777955586 | 0° C | 92% | 1000 hPa | - | - | - | - |
| 1777941186 | 0° C | 92% | 1000 hPa | - | - | - | - |
| 1777937587 | 0.56° C | 74% | 999 hPa | - | - | - | - |
| 1777930389 | 1.67° C | 74% | 999 hPa | - | - | - | - |
| 1777926790 | 2.78° C | 64% | 999 hPa | - | - | - | - |
| 1777923191 | 2.78° C | 69% | 999 hPa | - | - | - | - |
| 1777921390 | 2.78° C | 64% | 998 hPa | - | - | - | - |
| 1777919588 | 3.89° C | 69% | 998 hPa | - | - | - | - |
| 1777917787 | 3.89° C | 69% | 998 hPa | - | - | - | - |
| 1777915991 | 3.89° C | 69% | 998 hPa | - | - | - | - |
| 1777914190 | 3.89° C | 69% | 998 hPa | - | - | - | - |
| 1777912390 | 5° C | 65% | 997 hPa | - | - | - | - |
| 1777910588 | 5° C | 70% | 997 hPa | - | - | - | - |
| 1777908788 | 5° C | 70% | 997 hPa | - | - | - | - |
* Rain since midnight (hover to see other rain measurements)
** Current wind speed in m/s (hover to see current wind gust speed)